Mc Neal, Arizona
Current Conditions -  °F | °C
As of 11:56 AM on Thursday 27 Nov 2014 (Local Time) from KDUG Reporting Station
Clear Clear  
Wind Chill: 71°   Ceiling: Unl
Heat Index: 71°   Visibility: 10mi
Dew Point: 21°   Wind: 14mph
Humidity: 15%   Direction: 80°E
Pressure: 30.31"   Gusts: 21mph
Location:  31.4669°N, 109.689°W
Report Text: KDUG 271856Z AUTO 08012G18KT 10SM CLR 22/M06 A3031 RMK AO2 SLP228 T02171061
Loading
Personal Weather Stations






























Interactive Weather Map New forecast layout! Learn more

10-Day Weather Forecast

Advertisements
Track Severe Weather on mobile